createdAt,value
2018-04-24T00:00:20.735Z,19.90
2018-04-24T00:02:49.115Z,19.63
2018-04-24T00:05:16.728Z,19.00
2018-04-24T00:07:44.340Z,17.33
2018-04-24T00:10:12.689Z,18.20
2018-04-24T00:12:41.145Z,17.30
2018-04-24T00:15:08.717Z,17.80
2018-04-24T00:17:37.076Z,16.57
2018-04-24T00:20:04.647Z,17.33
2018-04-24T00:22:32.224Z,16.80
2018-04-24T00:24:59.799Z,15.67
2018-04-24T00:27:27.392Z,16.83
2018-04-24T00:29:55.793Z,16.90
2018-04-24T00:32:23.361Z,15.77
2018-04-24T00:34:50.943Z,16.00
2018-04-24T00:37:18.528Z,16.40
2018-04-24T00:39:46.522Z,17.00
2018-04-24T00:42:14.923Z,15.87
2018-04-24T00:44:42.497Z,14.80
2018-04-24T00:47:10.116Z,13.90
2018-04-24T00:49:38.483Z,17.40
2018-04-24T00:52:06.100Z,14.37
2018-04-24T00:54:33.681Z,14.57
2018-04-24T00:57:01.300Z,14.83
2018-04-24T00:59:29.637Z,13.53
2018-04-24T01:01:57.385Z,11.60
2018-04-24T01:04:25.009Z,10.70
2018-04-24T01:06:53.331Z,10.63
2018-04-24T01:09:20.955Z,11.97
2018-04-24T01:11:48.518Z,10.50
2018-04-24T01:14:16.301Z,12.00
2018-04-24T01:16:43.889Z,12.60
2018-04-24T01:19:11.489Z,10.20
2018-04-24T01:24:13.830Z,10.93
2018-04-24T01:26:41.409Z,11.03
2018-04-24T01:29:09.030Z,10.30
2018-04-24T01:31:36.590Z,10.63
2018-04-24T01:34:04.204Z,11.73
2018-04-24T01:36:31.851Z,10.30
2018-04-24T01:39:00.276Z,9.80
2018-04-24T01:41:28.227Z,10.30
2018-04-24T01:43:56.985Z,9.83
2018-04-24T01:46:24.589Z,9.90
2018-04-24T01:48:52.951Z,8.90
2018-04-24T01:51:20.560Z,8.83
2018-04-24T01:53:48.130Z,7.83
2018-04-24T01:56:15.707Z,6.90
2018-04-24T01:58:43.315Z,5.93
2018-04-24T02:01:11.651Z,5.53
2018-04-24T02:03:39.221Z,5.90
2018-04-24T02:06:07.220Z,4.77
2018-04-24T02:08:35.567Z,5.40
2018-04-24T02:11:03.183Z,4.90
2018-04-24T02:13:30.744Z,5.60
2018-04-24T02:15:59.090Z,5.93
2018-04-24T02:18:27.475Z,5.37
2018-04-24T02:20:55.831Z,5.23
2018-04-24T02:23:23.558Z,5.23
2018-04-24T02:25:51.162Z,5.43
2018-04-24T02:28:18.738Z,8.40
2018-04-24T02:30:47.096Z,5.90
2018-04-24T02:33:15.072Z,5.80
2018-04-24T02:35:43.430Z,5.30
2018-04-24T02:38:11.080Z,6.57
2018-04-24T02:40:38.648Z,5.37
2018-04-24T02:43:06.989Z,5.50
2018-04-24T02:45:34.944Z,5.63
2018-04-24T02:48:03.301Z,5.13
2018-04-24T02:50:30.881Z,4.73
2018-04-24T02:52:59.223Z,5.00
2018-04-24T02:55:26.797Z,5.20
2018-04-24T02:57:55.141Z,5.13
2018-04-24T03:00:22.700Z,4.70
2018-04-24T03:02:51.054Z,4.40
2018-04-24T03:05:19.037Z,5.33
2018-04-24T03:07:47.066Z,4.20
2018-04-24T03:10:15.060Z,5.00
2018-04-24T03:12:43.037Z,4.77
2018-04-24T03:15:11.377Z,4.80
2018-04-24T03:17:39.008Z,5.23
2018-04-24T03:20:06.631Z,5.40
2018-04-24T03:22:34.981Z,5.40
2018-04-24T03:25:02.951Z,6.30
2018-04-24T03:27:30.527Z,5.90
2018-04-24T03:29:58.845Z,5.93
2018-04-24T03:32:26.920Z,5.50
2018-04-24T03:34:54.472Z,4.90
2018-04-24T03:37:22.089Z,6.43
2018-04-24T03:39:49.671Z,6.30
2018-04-24T03:42:18.022Z,4.70
2018-04-24T03:44:45.577Z,4.97
2018-04-24T03:47:13.169Z,4.57
2018-04-24T03:49:40.719Z,5.63
2018-04-24T03:52:08.287Z,5.90
2018-04-24T03:54:36.644Z,4.67
2018-04-24T03:57:05.096Z,4.87
2018-04-24T03:59:33.076Z,5.60
2018-04-24T04:02:00.672Z,6.60
2018-04-24T04:04:28.245Z,5.50
2018-04-24T04:06:56.633Z,5.67
2018-04-24T04:09:24.994Z,5.70
2018-04-24T04:11:52.556Z,5.93
2018-04-24T04:14:20.960Z,5.97
2018-04-24T04:16:51.123Z,5.57
2018-04-24T04:19:30.494Z,6.20
2018-04-24T04:22:09.687Z,5.73
2018-04-24T04:24:45.992Z,6.60
2018-04-24T04:27:13.551Z,6.40
2018-04-24T04:29:41.113Z,7.80
2018-04-24T04:32:09.577Z,6.07
2018-04-24T04:34:37.127Z,6.57
2018-04-24T04:37:04.724Z,6.00
2018-04-24T04:39:32.668Z,5.83
2018-04-24T04:42:00.246Z,8.00
2018-04-24T04:44:27.836Z,6.00
2018-04-24T04:46:56.171Z,6.47
2018-04-24T04:49:23.771Z,5.43
2018-04-24T04:51:52.096Z,5.90
2018-04-24T04:54:19.744Z,6.40
2018-04-24T04:56:47.433Z,6.10
2018-04-24T04:59:15.036Z,6.33
2018-04-24T05:01:43.388Z,6.77
2018-04-24T05:04:11.101Z,6.40
2018-04-24T05:06:38.713Z,6.90
2018-04-24T05:09:06.651Z,7.17
2018-04-24T05:11:34.245Z,6.90
2018-04-24T05:14:01.820Z,6.87
2018-04-24T05:16:30.170Z,6.10
2018-04-24T05:18:57.768Z,6.63
2018-04-24T05:21:26.121Z,6.13
2018-04-24T05:23:53.725Z,6.90
2018-04-24T05:26:22.202Z,6.60
2018-04-24T05:28:50.636Z,6.90
2018-04-24T05:31:18.205Z,5.77
2018-04-24T05:33:45.802Z,7.20
2018-04-24T05:36:14.149Z,7.20
2018-04-24T05:38:42.539Z,7.00
2018-04-24T05:41:10.108Z,6.13
2018-04-24T05:43:38.461Z,6.07
2018-04-24T05:46:06.049Z,5.20
2018-04-24T05:48:33.736Z,7.50
2018-04-24T05:51:01.317Z,6.40
2018-04-24T05:53:28.884Z,6.07
2018-04-24T05:55:56.477Z,5.83
2018-04-24T05:58:24.104Z,5.23
2018-04-24T06:00:51.693Z,7.97
2018-04-24T06:03:19.294Z,5.83
2018-04-24T06:05:46.906Z,5.80
2018-04-24T06:08:14.539Z,7.40
2018-04-24T06:10:42.099Z,5.97
2018-04-24T06:13:09.694Z,4.27
2018-04-24T06:15:37.249Z,5.80
2018-04-24T06:18:04.923Z,5.97
2018-04-24T06:20:32.485Z,6.33
2018-04-24T06:23:00.068Z,5.93
2018-04-24T06:25:28.408Z,6.70
2018-04-24T06:27:56.017Z,5.80
2018-04-24T06:30:24.363Z,6.00
2018-04-24T06:32:51.948Z,6.00
2018-04-24T06:35:20.301Z,6.00
2018-04-24T06:37:47.947Z,4.90
2018-04-24T06:40:15.516Z,4.83
2018-04-24T06:42:43.081Z,5.30
2018-04-24T06:45:10.673Z,4.70
2018-04-24T06:47:38.254Z,4.50
2018-04-24T06:50:05.859Z,4.97
2018-04-24T06:52:33.457Z,5.00
2018-04-24T06:55:01.066Z,5.50
2018-04-24T06:57:29.384Z,5.07
2018-04-24T06:59:56.962Z,5.47
2018-04-24T07:02:25.516Z,5.20
2018-04-24T07:04:53.082Z,4.60
2018-04-24T07:07:20.681Z,5.40
2018-04-24T07:09:48.244Z,4.40
2018-04-24T07:12:16.724Z,4.90
2018-04-24T07:14:45.054Z,6.63
2018-04-24T07:17:12.672Z,5.90
2018-04-24T07:19:40.252Z,6.80
2018-04-24T07:22:07.888Z,5.57
2018-04-24T07:24:36.197Z,6.40
2018-04-24T07:27:03.816Z,4.60
2018-04-24T07:29:31.367Z,6.53
2018-04-24T07:31:58.961Z,5.37
2018-04-24T07:34:26.545Z,4.43
2018-04-24T07:36:54.129Z,5.07
2018-04-24T07:39:21.733Z,5.60
2018-04-24T07:41:50.064Z,5.07
2018-04-24T07:44:17.778Z,4.10
2018-04-24T07:46:45.361Z,4.93
2018-04-24T07:49:12.941Z,4.63
2018-04-24T07:51:40.533Z,5.03
2018-04-24T07:54:08.142Z,4.80
2018-04-24T07:56:35.708Z,6.17
2018-04-24T07:59:03.389Z,6.87
2018-04-24T08:01:30.955Z,5.10
2018-04-24T08:03:58.552Z,5.20
2018-04-24T08:06:26.227Z,5.07
2018-04-24T08:08:54.567Z,5.50
2018-04-24T08:11:22.193Z,4.83
2018-04-24T08:13:49.779Z,5.20
2018-04-24T08:16:17.412Z,4.33
2018-04-24T08:18:44.966Z,5.20
2018-04-24T08:21:13.367Z,5.00
2018-04-24T08:23:40.945Z,6.30
2018-04-24T08:26:08.533Z,5.37
2018-04-24T08:28:36.119Z,5.27
2018-04-24T08:31:04.471Z,6.00
2018-04-24T08:33:32.046Z,4.93
2018-04-24T08:36:00.388Z,5.70
2018-04-24T08:38:27.960Z,4.70
2018-04-24T08:40:55.555Z,7.70
2018-04-24T08:43:23.989Z,5.30
2018-04-24T08:45:51.557Z,7.37
2018-04-24T08:48:19.155Z,6.33
2018-04-24T08:50:47.503Z,5.17
2018-04-24T08:53:15.096Z,5.00
2018-04-24T08:55:43.469Z,5.60
2018-04-24T08:58:11.804Z,6.90
2018-04-24T09:00:39.395Z,5.87
2018-04-24T09:03:07.092Z,5.40
2018-04-24T09:05:35.459Z,5.20
2018-04-24T09:08:03.787Z,6.90
2018-04-24T09:10:32.312Z,6.37
2018-04-24T09:13:00.696Z,6.67
2018-04-24T09:15:29.046Z,6.77
2018-04-24T09:17:56.660Z,8.57
2018-04-24T09:20:24.235Z,6.27
2018-04-24T09:22:52.437Z,7.10
2018-04-24T09:25:20.032Z,6.57
2018-04-24T09:27:48.383Z,6.43
2018-04-24T09:30:16.172Z,7.37
2018-04-24T09:32:43.775Z,8.00
2018-04-24T09:35:26.212Z,7.33
2018-04-24T09:37:53.867Z,7.70
2018-04-24T09:40:22.225Z,8.00
2018-04-24T09:42:49.819Z,8.43
2018-04-24T09:45:17.411Z,7.50
2018-04-24T09:47:45.739Z,7.97
2018-04-24T09:50:13.368Z,8.80
2018-04-24T09:52:41.712Z,9.20
2018-04-24T09:55:09.357Z,9.63
2018-04-24T09:57:36.948Z,10.00
2018-04-24T10:00:04.531Z,11.50
2018-04-24T10:02:32.195Z,10.33
2018-04-24T10:05:00.524Z,11.17
2018-04-24T10:07:29.494Z,9.33
2018-04-24T10:09:57.058Z,9.33
2018-04-24T10:12:24.641Z,9.67
2018-04-24T10:14:52.197Z,12.20
2018-04-24T10:17:19.800Z,13.27
2018-04-24T10:19:48.237Z,13.20
2018-04-24T10:22:15.758Z,12.10
2018-04-24T10:24:43.341Z,12.63
2018-04-24T10:27:10.987Z,12.60
2018-04-24T10:29:39.300Z,15.30
2018-04-24T10:32:06.858Z,13.20
2018-04-24T10:34:34.477Z,13.47
2018-04-24T10:37:02.840Z,13.23
2018-04-24T10:39:31.228Z,12.60
2018-04-24T10:41:59.672Z,14.80
2018-04-24T10:44:27.266Z,13.97
2018-04-24T10:46:55.611Z,14.40
2018-04-24T10:49:23.219Z,14.10
2018-04-24T10:51:50.869Z,15.23
2018-04-24T10:54:18.381Z,13.70
2018-04-24T10:56:45.935Z,15.87
2018-04-24T10:59:13.634Z,15.60
2018-04-24T11:01:41.899Z,14.20
2018-04-24T11:04:09.481Z,13.37
2018-04-24T11:06:37.121Z,12.87
2018-04-24T11:09:06.144Z,12.13
2018-04-24T11:11:33.732Z,12.97
2018-04-24T11:14:01.317Z,13.10
2018-04-24T11:16:28.932Z,14.63
2018-04-24T11:18:57.285Z,13.10
2018-04-24T11:21:25.577Z,11.77
2018-04-24T11:23:53.453Z,12.03
2018-04-24T11:26:21.823Z,12.90
2018-04-24T11:28:49.410Z,12.57
2018-04-24T11:31:17.765Z,14.33
2018-04-24T11:33:45.331Z,14.40
2018-04-24T11:36:13.704Z,15.40
2018-04-24T11:38:41.283Z,14.20
2018-04-24T11:41:09.679Z,14.67
2018-04-24T11:43:37.237Z,15.47
2018-04-24T11:46:04.851Z,15.47
2018-04-24T11:48:32.453Z,16.50
2018-04-24T11:51:00.784Z,14.47
2018-04-24T11:53:28.396Z,14.80
2018-04-24T11:55:55.992Z,16.50
2018-04-24T11:58:23.847Z,15.90
2018-04-24T12:00:51.423Z,15.57
2018-04-24T12:03:19.004Z,15.80
2018-04-24T12:05:46.573Z,14.90
2018-04-24T12:08:14.160Z,18.17
2018-04-24T12:10:42.502Z,16.13
2018-04-24T12:13:10.082Z,16.07
2018-04-24T12:15:37.703Z,16.30
2018-04-24T12:18:05.287Z,16.67
2018-04-24T12:20:33.660Z,17.67
2018-04-24T12:23:01.244Z,17.63
2018-04-24T12:25:28.824Z,18.50
2018-04-24T12:27:57.179Z,15.10
2018-04-24T12:30:24.801Z,17.40
2018-04-24T12:32:53.116Z,18.50
2018-04-24T12:35:20.659Z,19.10
2018-04-24T12:37:48.265Z,19.43
2018-04-24T12:40:16.625Z,17.33
2018-04-24T12:42:44.215Z,20.93
2018-04-24T12:45:12.577Z,18.40
2018-04-24T12:47:40.248Z,19.90
2018-04-24T12:50:08.587Z,18.40
2018-04-24T12:52:36.225Z,20.03
2018-04-24T12:55:03.834Z,19.73
2018-04-24T12:57:32.220Z,19.87
2018-04-24T12:59:59.893Z,18.83
2018-04-24T13:02:28.264Z,17.80
2018-04-24T13:04:56.633Z,19.67
2018-04-24T13:07:24.220Z,20.30
2018-04-24T13:09:52.868Z,18.40
2018-04-24T13:12:20.433Z,17.13
2018-04-24T13:14:48.027Z,16.80
2018-04-24T13:17:16.421Z,17.60
2018-04-24T13:19:44.033Z,19.20
2018-04-24T13:22:11.599Z,18.40
2018-04-24T13:24:39.247Z,16.63
2018-04-24T13:27:06.811Z,17.43
2018-04-24T13:29:34.588Z,17.43
2018-04-24T13:32:02.169Z,16.07
2018-04-24T13:34:29.736Z,16.87
2018-04-24T13:36:58.112Z,16.13
2018-04-24T13:39:26.517Z,16.43
2018-04-24T13:41:54.149Z,16.67
2018-04-24T13:44:21.727Z,19.07
2018-04-24T13:46:50.128Z,18.43
2018-04-24T13:49:17.700Z,17.17
2018-04-24T13:51:45.410Z,18.57
2018-04-24T13:54:13.001Z,15.73
2018-04-24T13:56:40.600Z,15.10
2018-04-24T13:59:08.193Z,14.30
2018-04-24T14:01:35.902Z,14.00
2018-04-24T14:04:03.555Z,14.17
2018-04-24T14:06:31.199Z,14.23
2018-04-24T14:08:59.537Z,14.00
2018-04-24T14:11:27.159Z,15.53
2018-04-24T14:13:54.793Z,13.00
2018-04-24T14:16:22.408Z,12.97
2018-04-24T14:18:50.089Z,13.50
2018-04-24T14:21:17.898Z,13.47
2018-04-24T14:23:46.255Z,12.77
2018-04-24T14:26:13.861Z,13.10
2018-04-24T14:28:41.488Z,12.40
2018-04-24T14:31:09.065Z,11.90
2018-04-24T14:33:37.461Z,14.13
2018-04-24T14:36:05.074Z,11.13
2018-04-24T14:38:32.775Z,13.27
2018-04-24T14:41:01.184Z,12.63
2018-04-24T14:43:28.776Z,12.00
2018-04-24T14:45:56.365Z,12.73
2018-04-24T14:48:24.794Z,12.87
2018-04-24T14:50:52.416Z,14.10
2018-04-24T14:53:20.827Z,13.67
2018-04-24T14:55:48.477Z,14.20
2018-04-24T14:58:16.283Z,17.07
2018-04-24T15:00:43.789Z,12.87
2018-04-24T15:03:12.207Z,14.10
2018-04-24T15:05:39.874Z,12.40
2018-04-24T15:08:07.488Z,13.33
2018-04-24T15:10:35.923Z,13.33
2018-04-24T15:13:03.631Z,13.20
2018-04-24T15:15:32.038Z,12.63
2018-04-24T15:18:00.416Z,12.83
2018-04-24T15:20:28.026Z,13.80
2018-04-24T15:22:55.613Z,13.23
2018-04-24T15:25:23.239Z,14.40
2018-04-24T15:27:50.891Z,14.20
2018-04-24T15:30:18.528Z,13.17
2018-04-24T15:32:46.126Z,15.50
2018-04-24T15:35:13.726Z,13.63
2018-04-24T15:37:42.100Z,13.17
2018-04-24T15:40:10.117Z,13.87
2018-04-24T15:42:37.932Z,14.20
2018-04-24T15:45:05.557Z,14.60
2018-04-24T15:47:33.159Z,16.40
2018-04-24T15:50:01.527Z,15.30
2018-04-24T15:52:29.336Z,15.30
2018-04-24T15:54:56.972Z,14.27
2018-04-24T15:57:25.347Z,13.60
2018-04-24T15:59:53.717Z,13.20
2018-04-24T16:02:21.320Z,13.97
2018-04-24T16:04:49.689Z,14.53
2018-04-24T16:07:17.287Z,15.13
2018-04-24T16:09:45.777Z,16.33
2018-04-24T16:12:13.411Z,13.50
2018-04-24T16:14:41.017Z,14.07
2018-04-24T16:17:08.610Z,15.60
2018-04-24T16:19:36.269Z,15.83
2018-04-24T16:22:03.890Z,16.27
2018-04-24T16:24:31.908Z,14.53
2018-04-24T16:27:00.295Z,14.57
2018-04-24T16:29:27.962Z,15.20
2018-04-24T16:31:55.891Z,15.27
2018-04-24T16:34:23.980Z,14.93
2018-04-24T16:36:52.348Z,15.43
2018-04-24T16:39:20.397Z,14.43
2018-04-24T16:41:48.788Z,16.53
2018-04-24T16:44:16.387Z,15.57
2018-04-24T16:46:44.030Z,14.33
2018-04-24T16:49:12.048Z,15.97
2018-04-24T16:51:39.746Z,14.70
2018-04-24T16:54:08.105Z,16.50
2018-04-24T16:56:36.132Z,16.07
2018-04-24T16:59:04.158Z,17.40
2018-04-24T17:01:32.569Z,17.40
2018-04-24T17:04:00.954Z,16.57
2018-04-24T17:06:29.318Z,15.37
2018-04-24T17:08:56.928Z,16.80
2018-04-24T17:11:24.561Z,16.53
2018-04-24T17:13:52.611Z,16.87
2018-04-24T17:16:20.333Z,16.23
2018-04-24T17:18:48.725Z,15.40
2018-04-24T17:21:16.338Z,15.27
2018-04-24T17:23:44.767Z,15.47
2018-04-24T17:26:12.416Z,15.60
2018-04-24T17:28:40.009Z,16.20
2018-04-24T17:31:07.620Z,16.33
2018-04-24T17:33:35.276Z,16.60
2018-04-24T17:36:02.921Z,17.40
2018-04-24T17:38:31.314Z,17.30
2018-04-24T17:40:59.695Z,16.27
2018-04-24T17:43:28.058Z,15.77
2018-04-24T17:45:56.474Z,15.57
2018-04-24T17:48:24.140Z,17.27
2018-04-24T17:50:51.764Z,17.93
2018-04-24T17:53:19.406Z,16.50
2018-04-24T17:55:47.022Z,17.80
2018-04-24T17:58:14.617Z,16.73
2018-04-24T18:00:42.904Z,15.77
2018-04-24T18:03:10.533Z,16.23
2018-04-24T18:05:38.173Z,18.00
2018-04-24T18:08:06.329Z,18.80
2018-04-24T18:10:34.796Z,20.97
2018-04-24T18:13:02.394Z,19.47
2018-04-24T18:15:29.983Z,19.97
2018-04-24T18:17:57.865Z,30.67
2018-04-24T18:20:25.479Z,49.63
2018-04-24T18:22:53.104Z,43.87
2018-04-24T18:25:20.730Z,26.20
2018-04-24T18:27:48.499Z,18.70
2018-04-24T18:30:16.108Z,17.50
2018-04-24T18:32:44.689Z,14.67
2018-04-24T18:35:12.333Z,15.87
2018-04-24T18:37:39.991Z,15.67
2018-04-24T18:40:07.684Z,15.80
2018-04-24T18:42:35.352Z,16.03
2018-04-24T18:45:03.763Z,15.03
2018-04-24T18:47:31.430Z,14.07
2018-04-24T18:49:59.038Z,16.30
2018-04-24T18:52:26.722Z,15.73
2018-04-24T18:54:55.100Z,14.73
2018-04-24T18:57:22.836Z,16.13
2018-04-24T18:59:51.298Z,16.60
2018-04-24T19:02:18.977Z,17.70
2018-04-24T19:04:46.609Z,16.33
2018-04-24T19:07:14.263Z,15.80
2018-04-24T19:09:41.921Z,17.60
2018-04-24T19:12:09.540Z,16.83
2018-04-24T19:14:37.184Z,16.83
2018-04-24T19:17:04.835Z,17.53
2018-04-24T19:19:32.561Z,17.70
2018-04-24T19:22:00.292Z,15.97
2018-04-24T19:24:33.593Z,16.40
2018-04-24T19:27:01.306Z,16.23
2018-04-24T19:29:28.890Z,15.57
2018-04-24T19:32:02.180Z,18.90
2018-04-24T19:34:29.834Z,18.70
2018-04-24T19:36:57.466Z,17.07
2018-04-24T19:39:31.543Z,15.23
2018-04-24T19:41:59.148Z,16.80
2018-04-24T19:44:27.961Z,17.33
2018-04-24T19:46:55.651Z,15.27
2018-04-24T19:49:29.016Z,14.70
2018-04-24T19:51:56.590Z,14.07
2018-04-24T19:54:24.535Z,13.87
2018-04-24T19:56:52.315Z,16.60
2018-04-24T19:59:20.020Z,14.07
2018-04-24T20:01:47.713Z,15.37
2018-04-24T20:04:16.120Z,15.73
2018-04-24T20:06:43.815Z,16.57
2018-04-24T20:09:11.999Z,15.93
2018-04-24T20:11:40.552Z,15.87
2018-04-24T20:14:08.237Z,14.13
2018-04-24T20:16:36.369Z,15.10
2018-04-24T20:19:04.116Z,14.10
2018-04-24T20:21:32.757Z,15.90
2018-04-24T20:24:00.516Z,15.33
2018-04-24T20:26:28.103Z,16.03
2018-04-24T20:28:56.573Z,20.53
2018-04-24T20:31:25.142Z,16.00
2018-04-24T20:33:52.944Z,14.57
2018-04-24T20:36:20.537Z,15.53
2018-04-24T20:38:50.024Z,15.07
2018-04-24T20:41:18.589Z,16.67
2018-04-24T20:43:47.111Z,16.17
2018-04-24T20:46:14.699Z,14.93
2018-04-24T20:48:42.313Z,14.73
2018-04-24T20:51:10.723Z,16.47
2018-04-24T20:53:38.424Z,15.40
2018-04-24T20:56:06.736Z,14.73
2018-04-24T20:58:35.111Z,17.53
2018-04-24T21:01:03.613Z,16.70
2018-04-24T21:03:31.156Z,16.63
2018-04-24T21:05:58.797Z,18.47
2018-04-24T21:08:26.420Z,15.03
2018-04-24T21:10:54.030Z,16.30
2018-04-24T21:13:21.627Z,14.33
2018-04-24T21:15:49.214Z,17.73
2018-04-24T21:18:16.829Z,15.97
2018-04-24T21:20:45.183Z,15.73
2018-04-24T21:23:12.771Z,15.47
2018-04-24T21:25:41.144Z,16.93
2018-04-24T21:28:09.506Z,17.30
2018-04-24T21:30:37.056Z,15.37
2018-04-24T21:33:04.640Z,16.97
2018-04-24T21:35:33.081Z,18.20
2018-04-24T21:38:00.724Z,17.63
2018-04-24T21:40:28.322Z,17.87
2018-04-24T21:42:55.940Z,16.83
2018-04-24T21:45:24.846Z,15.73
2018-04-24T21:47:52.866Z,16.07
2018-04-24T21:50:21.240Z,15.60
2018-04-24T21:52:48.872Z,16.37
2018-04-24T21:55:16.481Z,15.50
2018-04-24T21:57:44.875Z,15.87
2018-04-24T22:00:16.062Z,16.67
2018-04-24T22:02:43.690Z,16.60
2018-04-24T22:05:11.363Z,15.73
2018-04-24T22:07:38.968Z,16.53
2018-04-24T22:10:06.607Z,16.20
2018-04-24T22:12:34.213Z,16.20
2018-04-24T22:15:03.502Z,18.33
2018-04-24T22:17:31.078Z,16.10
2018-04-24T22:19:59.433Z,16.73
2018-04-24T22:22:27.075Z,16.77
2018-04-24T22:24:55.452Z,18.03
2018-04-24T22:27:23.047Z,16.30
2018-04-24T22:29:50.680Z,17.13
2018-04-24T22:32:18.271Z,17.00
2018-04-24T22:34:45.929Z,16.40
2018-04-24T22:37:13.535Z,16.63
2018-04-24T22:39:41.182Z,16.50
2018-04-24T22:42:09.584Z,15.53
2018-04-24T22:44:37.170Z,17.27
2018-04-24T22:47:04.768Z,17.03
2018-04-24T22:49:33.124Z,15.67
2018-04-24T22:52:00.720Z,15.40
2018-04-24T22:54:29.068Z,15.47
2018-04-24T22:56:56.839Z,15.90
2018-04-24T22:59:24.414Z,15.67
2018-04-24T23:01:52.000Z,15.07
2018-04-24T23:04:19.604Z,15.97
2018-04-24T23:06:47.191Z,14.83
2018-04-24T23:09:14.858Z,13.17
2018-04-24T23:11:54.940Z,14.27
2018-04-24T23:14:34.230Z,14.97
2018-04-24T23:17:13.576Z,15.00
2018-04-24T23:19:52.912Z,16.47
2018-04-24T23:22:29.358Z,14.17
2018-04-24T23:24:57.068Z,15.43
2018-04-24T23:27:25.436Z,17.90
2018-04-24T23:29:53.030Z,14.53
2018-04-24T23:32:20.597Z,16.00
2018-04-24T23:34:48.240Z,13.97
2018-04-24T23:37:16.589Z,15.73
2018-04-24T23:39:44.211Z,15.67
2018-04-24T23:42:11.780Z,14.83
2018-04-24T23:44:39.388Z,14.57
2018-04-24T23:47:07.747Z,14.67
2018-04-24T23:49:35.349Z,14.60
2018-04-24T23:52:02.919Z,15.27
2018-04-24T23:54:30.520Z,14.00
2018-04-24T23:56:58.270Z,13.37
2018-04-24T23:59:25.986Z,14.20
